Time;durP1;ratioP1;P1;durP2;ratioP2;P2;SDS_P1;SDS_P2;PMS_P1;PMS_P2;Temp;Humidity;BMP_temperature;BMP_pressure;BME280_temperature;BME280_humidity;BME280_pressure;Samples;Min_cycle;Max_cycle;Signal;HPM_P1;HPM_P2
2022/04/20 00:00:03;;;;;;;13.93;3.35;;;;;;;;;;5074501;28;20201;-65
2022/04/20 00:02:30;;;;;;;14.68;3.45;;;;;;;;;;5074098;28;20241;-65
2022/04/20 00:04:58;;;;;;;13.57;2.97;;;;;;;;;;5073845;28;20609;-65
2022/04/20 00:07:26;;;;;;;16.10;3.30;;;;;;;;;;5074058;28;20283;-65
2022/04/20 00:12:59;;;;;;;15.05;3.65;;;;;;;;;;5073854;28;20179;-66
2022/04/20 00:18:44;;;;;;;15.70;4.00;;;;;;;;;;5073706;28;20697;-66
2022/04/20 00:21:11;;;;;;;13.63;3.22;;;;;;;;;;5073812;28;20673;-65
2022/04/20 00:23:39;;;;;;;14.73;3.47;;;;;;;;;;5073771;28;20229;-65
2022/04/20 00:26:07;;;;;;;15.75;3.40;;;;;;;;;;5073673;28;20657;-65
2022/04/20 00:28:37;;;;;;;16.73;3.20;;;;;;;;;;5074371;28;20232;-65
2022/04/20 00:31:04;;;;;;;13.85;3.50;;;;;;;;;;5073400;28;20200;-66
2022/04/20 00:33:31;;;;;;;17.55;3.53;;;;;;;;;;5073682;28;20228;-66
2022/04/20 00:35:59;;;;;;;14.70;3.40;;;;;;;;;;5073379;28;20580;-66
2022/04/20 00:38:32;;;;;;;15.77;2.92;;;;;;;;;;5073182;28;20399;-65
2022/04/20 00:44:07;;;;;;;12.95;2.55;;;;;;;;;;5073535;28;20163;-65
2022/04/20 00:46:35;;;;;;;15.15;4.15;;;;;;;;;;5093851;28;20196;-65
2022/04/20 00:49:03;;;;;;;14.20;3.50;;;;;;;;;;5093090;28;20188;-65
2022/04/20 00:51:35;;;;;;;15.75;4.25;;;;;;;;;;5093383;28;20214;-68
2022/04/20 00:54:03;;;;;;;15.75;4.18;;;;;;;;;;5093048;28;20196;-66
2022/04/20 00:56:30;;;;;;;19.05;5.20;;;;;;;;;;5092538;28;20196;-65
2022/04/20 00:58:59;;;;;;;16.77;4.82;;;;;;;;;;5092768;28;20228;-65
2022/04/20 01:01:28;;;;;;;21.27;3.70;;;;;;;;;;5093994;28;20206;-65
2022/04/20 01:03:55;;;;;;;16.17;3.72;;;;;;;;;;5093819;28;20235;-66
2022/04/20 01:06:23;;;;;;;15.93;3.83;;;;;;;;;;5093983;28;20215;-65
2022/04/20 01:08:53;;;;;;;15.48;4.00;;;;;;;;;;5093931;28;20195;-66
2022/04/20 01:27:21;;;;;;;18.52;4.78;;;;;;;;;;5093067;28;20697;-65
2022/04/20 01:32:58;;;;;;;14.93;3.78;;;;;;;;;;5093203;28;20194;-66
2022/04/20 01:38:40;;;;;;;23.50;4.25;;;;;;;;;;5092511;28;20314;-65
2022/04/20 01:41:08;;;;;;;23.08;4.00;;;;;;;;;;5092920;28;20295;-65
2022/04/20 01:43:37;;;;;;;32.90;5.85;;;;;;;;;;5092991;28;20191;-65
2022/04/20 01:49:18;;;;;;;29.00;5.40;;;;;;;;;;5092713;28;20651;-67
2022/04/20 01:55:04;;;;;;;17.95;3.85;;;;;;;;;;5092645;28;20209;-65
2022/04/20 02:02:34;;;;;;;19.90;3.80;;;;;;;;;;5078367;28;20266;-66
2022/04/20 02:03:51;;;;;;;24.60;3.75;;;;;;;;;;5112641;28;20243;-65
2022/04/20 02:06:19;;;;;;;17.55;4.30;;;;;;;;;;5113906;28;20222;-65
2022/04/20 02:11:55;;;;;;;52.15;6.40;;;;;;;;;;5115682;28;20187;-65
2022/04/20 02:17:27;;;;;;;25.48;6.45;;;;;;;;;;5116667;28;20201;-66
2022/04/20 02:23:05;;;;;;;16.55;3.85;;;;;;;;;;5116737;28;20181;-65
2022/04/20 02:25:33;;;;;;;16.83;3.45;;;;;;;;;;5116817;28;20203;-65
2022/04/20 02:28:00;;;;;;;17.00;4.20;;;;;;;;;;5116679;28;20191;-65
2022/04/20 02:33:31;;;;;;;59.33;15.43;;;;;;;;;;5116416;28;20162;-65
2022/04/20 02:39:39;;;;;;;70.28;13.60;;;;;;;;;;5116267;28;20727;-65
2022/04/20 02:45:20;;;;;;;21.60;6.45;;;;;;;;;;5116224;28;20232;-65
2022/04/20 02:51:06;;;;;;;18.80;5.15;;;;;;;;;;5116409;28;20163;-65
2022/04/20 02:57:25;;;;;;;18.70;4.57;;;;;;;;;;5116027;28;20170;-65
2022/04/20 03:03:04;;;;;;;20.98;6.00;;;;;;;;;;5112666;28;20250;-65
2022/04/20 03:18:32;;;;;;;20.30;4.78;;;;;;;;;;5115798;28;20207;-65
2022/04/20 03:24:20;;;;;;;112.03;34.78;;;;;;;;;;5072774;28;20210;-65
2022/04/20 03:30:29;;;;;;;84.05;23.98;;;;;;;;;;5073027;28;20243;-65
2022/04/20 03:39:41;;;;;;;27.45;8.10;;;;;;;;;;5089872;28;20249;-65
2022/04/20 03:42:10;;;;;;;25.60;7.72;;;;;;;;;;5114903;28;20668;-65
2022/04/20 03:44:39;;;;;;;58.28;19.45;;;;;;;;;;5114899;28;20252;-65
2022/04/20 03:50:11;;;;;;;51.60;19.27;;;;;;;;;;5114973;28;20247;-65
2022/04/20 03:52:39;;;;;;;39.58;15.27;;;;;;;;;;5114343;28;20226;-65
2022/04/20 03:55:07;;;;;;;40.30;13.02;;;;;;;;;;5114167;28;20664;-70
2022/04/20 03:57:37;;;;;;;33.35;11.18;;;;;;;;;;5114216;28;20233;-66
2022/04/20 04:00:04;;;;;;;35.45;10.32;;;;;;;;;;5114299;28;20225;-65
2022/04/20 04:02:32;;;;;;;24.92;8.68;;;;;;;;;;5114442;28;20624;-66
2022/04/20 04:04:59;;;;;;;27.40;8.82;;;;;;;;;;5114139;28;20207;-66
2022/04/20 04:07:27;;;;;;;22.38;7.22;;;;;;;;;;5113772;28;20210;-65
2022/04/20 04:09:54;;;;;;;18.70;6.10;;;;;;;;;;5114017;28;20735;-65
2022/04/20 04:12:26;;;;;;;23.08;6.70;;;;;;;;;;5113858;28;20233;-65
2022/04/20 04:14:55;;;;;;;55.42;20.05;;;;;;;;;;5113856;28;20203;-65
2022/04/20 04:17:23;;;;;;;60.42;22.25;;;;;;;;;;5113588;28;20564;-66
2022/04/20 04:19:50;;;;;;;22.80;8.75;;;;;;;;;;5113752;28;20256;-66
2022/04/20 04:22:18;;;;;;;19.38;6.25;;;;;;;;;;5113718;28;20203;-71
2022/04/20 04:24:45;;;;;;;36.65;13.27;;;;;;;;;;5113784;28;20207;-65
2022/04/20 04:27:13;;;;;;;29.67;9.25;;;;;;;;;;5113904;28;20273;-65
2022/04/20 04:29:41;;;;;;;19.02;5.22;;;;;;;;;;5113752;28;20208;-65
2022/04/20 04:32:12;;;;;;;26.45;9.30;;;;;;;;;;5112675;28;20204;-65
2022/04/20 04:34:40;;;;;;;23.88;7.50;;;;;;;;;;5113469;28;20201;-65
2022/04/20 04:37:09;;;;;;;18.20;5.55;;;;;;;;;;5113906;28;20350;-65
2022/04/20 04:39:36;;;;;;;17.00;4.32;;;;;;;;;;5113335;28;20230;-66
2022/04/20 04:42:03;;;;;;;14.57;3.45;;;;;;;;;;5113351;28;20694;-66
2022/04/20 04:44:32;;;;;;;15.60;4.60;;;;;;;;;;5113309;28;20215;-66
2022/04/20 04:49:47;;;;;;;14.48;3.90;;;;;;;;;;5113467;28;20210;-65
2022/04/20 04:52:14;;;;;;;13.60;4.00;;;;;;;;;;5112783;28;20714;-66
2022/04/20 04:54:42;;;;;;;15.13;3.78;;;;;;;;;;5113043;28;20207;-66
2022/04/20 04:57:09;;;;;;;15.35;4.07;;;;;;;;;;5113433;28;20284;-66
2022/04/20 04:59:38;;;;;;;14.75;3.88;;;;;;;;;;5112714;28;20723;-66
2022/04/20 05:02:06;;;;;;;13.57;2.65;;;;;;;;;;5112692;28;20208;-66
2022/04/20 05:04:33;;;;;;;13.43;2.80;;;;;;;;;;5113227;28;20634;-65
2022/04/20 05:07:02;;;;;;;13.50;3.00;;;;;;;;;;5112991;28;20219;-65
2022/04/20 05:09:30;;;;;;;13.00;2.90;;;;;;;;;;5112809;28;20215;-66
2022/04/20 05:11:57;;;;;;;13.65;3.10;;;;;;;;;;5112868;28;20203;-66
2022/04/20 05:14:24;;;;;;;13.38;3.15;;;;;;;;;;5112630;28;20207;-65
2022/04/20 05:16:52;;;;;;;13.25;2.55;;;;;;;;;;5112628;28;20207;-69
2022/04/20 05:19:19;;;;;;;16.88;4.07;;;;;;;;;;5112372;28;20231;-66
2022/04/20 05:21:47;;;;;;;13.43;3.15;;;;;;;;;;5112639;28;20255;-66
2022/04/20 05:24:16;;;;;;;13.35;3.10;;;;;;;;;;5112512;28;20235;-66
2022/04/20 05:26:44;;;;;;;12.48;2.60;;;;;;;;;;5112476;28;20204;-66
2022/04/20 05:29:12;;;;;;;11.67;1.93;;;;;;;;;;5112672;28;20232;-66
2022/04/20 05:31:39;;;;;;;13.07;2.67;;;;;;;;;;5112651;28;20893;-66
2022/04/20 05:34:06;;;;;;;13.90;3.10;;;;;;;;;;5112356;28;20220;-65
2022/04/20 05:42:02;;;;;;;14.40;2.83;;;;;;;;;;5112496;28;20529;-66
2022/04/20 05:44:29;;;;;;;12.47;2.47;;;;;;;;;;5111911;28;20459;-66
2022/04/20 05:46:56;;;;;;;13.90;2.93;;;;;;;;;;5112378;28;20468;-66
2022/04/20 05:49:24;;;;;;;14.27;3.63;;;;;;;;;;5111914;28;20449;-66
2022/04/20 05:51:51;;;;;;;14.33;2.93;;;;;;;;;;5111791;28;20448;-68
2022/04/20 05:54:21;;;;;;;12.90;2.40;;;;;;;;;;5112040;28;20452;-66
2022/04/20 05:56:48;;;;;;;13.33;2.40;;;;;;;;;;5112167;28;20445;-66
2022/04/20 05:59:16;;;;;;;14.17;2.60;;;;;;;;;;5112047;28;20480;-66
2022/04/20 06:01:43;;;;;;;12.60;2.40;;;;;;;;;;5112027;28;20474;-66
2022/04/20 06:04:10;;;;;;;13.23;2.83;;;;;;;;;;5127421;28;20485;-66
2022/04/20 06:06:38;;;;;;;13.40;2.27;;;;;;;;;;5112040;28;20965;-66
2022/04/20 06:09:05;;;;;;;11.93;2.00;;;;;;;;;;5112145;28;20510;-66
2022/04/20 06:11:34;;;;;;;14.20;2.50;;;;;;;;;;5111732;28;20464;-66
2022/04/20 06:14:02;;;;;;;13.40;2.70;;;;;;;;;;5112089;28;20448;-66
2022/04/20 06:16:29;;;;;;;12.97;2.63;;;;;;;;;;5112112;28;20453;-66
2022/04/20 06:18:57;;;;;;;14.00;2.80;;;;;;;;;;5111728;28;21012;-67
2022/04/20 06:21:24;;;;;;;13.90;3.10;;;;;;;;;;5105344;28;20449;-66
2022/04/20 06:23:52;;;;;;;13.70;3.00;;;;;;;;;;5112030;28;20457;-66
2022/04/20 06:26:19;;;;;;;14.03;2.97;;;;;;;;;;5111909;28;20440;-66
2022/04/20 06:28:49;;;;;;;13.73;2.50;;;;;;;;;;5111978;28;20452;-66
2022/04/20 06:31:16;;;;;;;13.87;2.60;;;;;;;;;;5111863;28;20455;-67
2022/04/20 06:33:44;;;;;;;12.70;2.30;;;;;;;;;;5111972;28;20455;-66
2022/04/20 06:36:11;;;;;;;12.70;2.67;;;;;;;;;;5112211;28;20448;-66
2022/04/20 06:38:38;;;;;;;13.97;2.50;;;;;;;;;;5111861;28;20488;-66
2022/04/20 06:41:06;;;;;;;13.10;2.77;;;;;;;;;;5111723;28;20456;-68
2022/04/20 06:43:35;;;;;;;13.40;2.43;;;;;;;;;;5111719;28;20460;-66
2022/04/20 06:46:06;;;;;;;14.03;3.17;;;;;;;;;;5111866;28;20441;-67
2022/04/20 06:48:33;;;;;;;13.60;2.67;;;;;;;;;;5112021;28;20476;-66
2022/04/20 06:51:03;;;;;;;13.50;2.90;;;;;;;;;;5111786;28;20445;-66
2022/04/20 06:59:09;;;;;;;13.00;2.27;;;;;;;;;;5109898;28;20476;-66
2022/04/20 07:01:38;;;;;;;12.40;2.07;;;;;;;;;;5115387;28;20460;-66
2022/04/20 07:04:06;;;;;;;14.13;1.83;;;;;;;;;;5115114;28;20481;-70
2022/04/20 07:06:34;;;;;;;12.40;1.90;;;;;;;;;;5115650;28;20473;-66
2022/04/20 07:09:02;;;;;;;12.87;2.23;;;;;;;;;;5115053;28;20464;-66
2022/04/20 07:11:29;;;;;;;13.97;2.87;;;;;;;;;;5114874;28;20449;-66
2022/04/20 07:13:57;;;;;;;12.10;1.90;;;;;;;;;;5115070;28;20441;-66
2022/04/20 07:16:25;;;;;;;11.53;1.57;;;;;;;;;;5115313;28;20524;-67
2022/04/20 07:18:54;;;;;;;12.53;2.00;;;;;;;;;;5115210;28;20825;-66
2022/04/20 07:21:21;;;;;;;14.20;2.53;;;;;;;;;;5114741;28;20449;-66
2022/04/20 07:23:49;;;;;;;14.00;2.40;;;;;;;;;;5114994;28;20445;-66
2022/04/20 07:26:16;;;;;;;14.50;2.60;;;;;;;;;;5114904;28;20530;-66
2022/04/20 07:28:43;;;;;;;12.60;2.37;;;;;;;;;;5115242;28;20460;-66
2022/04/20 07:31:11;;;;;;;13.70;2.03;;;;;;;;;;5114653;28;20452;-66
2022/04/20 07:33:39;;;;;;;16.33;2.70;;;;;;;;;;5114726;28;20854;-66
2022/04/20 07:36:08;;;;;;;13.50;2.37;;;;;;;;;;5114701;28;20441;-66
2022/04/20 07:38:35;;;;;;;14.03;2.40;;;;;;;;;;5114797;28;20449;-66
2022/04/20 07:41:03;;;;;;;13.27;2.30;;;;;;;;;;5114588;28;20449;-70
2022/04/20 07:43:31;;;;;;;12.93;2.30;;;;;;;;;;5114541;28;20449;-66
2022/04/20 07:45:59;;;;;;;13.03;2.43;;;;;;;;;;5114419;28;20505;-66
2022/04/20 07:48:26;;;;;;;12.77;2.00;;;;;;;;;;5114435;28;20441;-66
2022/04/20 07:50:53;;;;;;;13.20;2.20;;;;;;;;;;5114390;28;20456;-66
2022/04/20 07:53:23;;;;;;;15.13;2.20;;;;;;;;;;5107460;28;20473;-66
2022/04/20 07:55:51;;;;;;;13.63;2.20;;;;;;;;;;5114259;28;20451;-65
2022/04/20 07:58:18;;;;;;;17.50;3.90;;;;;;;;;;5114241;28;20443;-65
2022/04/20 08:00:49;;;;;;;15.23;2.60;;;;;;;;;;5114049;28;20488;-65
2022/04/20 08:03:17;;;;;;;16.33;3.70;;;;;;;;;;5114129;28;20568;-66
2022/04/20 08:05:44;;;;;;;19.50;4.75;;;;;;;;;;5114057;28;20449;-65
2022/04/20 08:08:12;;;;;;;15.52;3.20;;;;;;;;;;5114356;28;20207;-65
2022/04/20 08:10:42;;;;;;;13.52;2.15;;;;;;;;;;5114219;28;20604;-66
2022/04/20 08:15:55;;;;;;;14.05;2.38;;;;;;;;;;5114048;28;20207;-66
2022/04/20 08:18:22;;;;;;;13.65;2.08;;;;;;;;;;5113894;28;20212;-65
2022/04/20 08:20:50;;;;;;;12.35;2.47;;;;;;;;;;5113702;28;20228;-65
2022/04/20 08:23:18;;;;;;;13.70;2.50;;;;;;;;;;5113713;28;20208;-66
2022/04/20 08:25:47;;;;;;;15.45;2.20;;;;;;;;;;5113988;28;20380;-66
2022/04/20 08:28:15;;;;;;;14.32;2.83;;;;;;;;;;5113588;28;20210;-65
2022/04/20 08:30:42;;;;;;;23.97;5.90;;;;;;;;;;5113716;28;20736;-66
2022/04/20 08:33:09;;;;;;;22.70;4.15;;;;;;;;;;5113680;28;20453;-66
2022/04/20 08:35:37;;;;;;;13.50;2.00;;;;;;;;;;5113551;28;20216;-66
2022/04/20 08:38:05;;;;;;;12.60;1.90;;;;;;;;;;5113678;28;20244;-66
2022/04/20 08:40:34;;;;;;;12.13;1.63;;;;;;;;;;5113329;28;20481;-65
2022/04/20 08:43:03;;;;;;;13.68;2.00;;;;;;;;;;5112280;28;20211;-65
2022/04/20 08:45:32;;;;;;;12.85;2.15;;;;;;;;;;5113312;28;20200;-65
2022/04/20 08:48:00;;;;;;;12.68;2.28;;;;;;;;;;5113338;28;20202;-67
2022/04/20 08:50:27;;;;;;;12.40;2.10;;;;;;;;;;5113325;28;20212;-65
2022/04/20 08:52:56;;;;;;;13.00;2.45;;;;;;;;;;5113149;28;20477;-65
2022/04/20 08:55:24;;;;;;;18.80;5.47;;;;;;;;;;5112137;28;20445;-66
2022/04/20 08:57:53;;;;;;;13.90;2.37;;;;;;;;;;5112736;28;20613;-68
2022/04/20 09:00:25;;;;;;;12.95;1.83;;;;;;;;;;5113114;28;20527;-65
2022/04/20 09:02:55;;;;;;;13.85;1.80;;;;;;;;;;5113503;28;20228;-66
2022/04/20 09:05:22;;;;;;;14.77;2.77;;;;;;;;;;5112834;28;20205;-67
2022/04/20 09:07:50;;;;;;;13.47;2.20;;;;;;;;;;5112733;28;20533;-65
2022/04/20 09:10:18;;;;;;;14.43;1.80;;;;;;;;;;5113089;28;20444;-67
2022/04/20 09:12:46;;;;;;;13.97;1.97;;;;;;;;;;5112939;28;20534;-67
2022/04/20 09:15:15;;;;;;;14.53;3.57;;;;;;;;;;5112908;28;20443;-71
2022/04/20 09:17:45;;;;;;;15.57;2.63;;;;;;;;;;5112322;28;20451;-65
2022/04/20 09:20:17;;;;;;;19.40;2.10;;;;;;;;;;5112450;28;20487;-66
2022/04/20 09:23:00;;;;;;;12.40;2.00;;;;;;;;;;5105787;28;20209;-66
2022/04/20 09:25:31;;;;;;;17.48;3.05;;;;;;;;;;5106777;28;20461;-66
2022/04/20 09:27:58;;;;;;;11.90;1.70;;;;;;;;;;5112998;28;20212;-67
2022/04/20 09:30:26;;;;;;;15.67;2.00;;;;;;;;;;5112583;28;20208;-67
2022/04/20 09:32:56;;;;;;;13.57;2.67;;;;;;;;;;5112327;28;20449;-66
2022/04/20 09:35:23;;;;;;;15.40;2.88;;;;;;;;;;5112452;28;20208;-66
2022/04/20 09:38:04;;;;;;;13.05;2.25;;;;;;;;;;5112537;28;20596;-66
2022/04/20 09:40:34;;;;;;;14.90;2.60;;;;;;;;;;5112339;28;20261;-66
2022/04/20 09:43:02;;;;;;;13.17;2.30;;;;;;;;;;5112527;28;20516;-66
2022/04/20 09:45:30;;;;;;;15.80;2.60;;;;;;;;;;5112494;28;20513;-66
2022/04/20 09:50:44;;;;;;;15.13;2.70;;;;;;;;;;5112408;28;20290;-66
2022/04/20 09:53:14;;;;;;;13.27;2.47;;;;;;;;;;5111974;28;20797;-67
2022/04/20 09:55:42;;;;;;;12.67;2.30;;;;;;;;;;5112078;28;20448;-65
2022/04/20 09:58:17;;;;;;;14.40;2.83;;;;;;;;;;5112317;28;20817;-66
2022/04/20 10:00:47;;;;;;;12.10;2.13;;;;;;;;;;5112391;28;20489;-66
2022/04/20 10:03:25;;;;;;;14.03;2.60;;;;;;;;;;5111868;28;20261;-67
2022/04/20 10:05:52;;;;;;;16.75;3.35;;;;;;;;;;5112223;28;20833;-67
2022/04/20 10:08:20;;;;;;;12.55;2.30;;;;;;;;;;5112040;28;20204;-67
2022/04/20 10:10:49;;;;;;;13.37;2.53;;;;;;;;;;5112187;28;20214;-68
2022/04/20 10:13:17;;;;;;;15.20;2.60;;;;;;;;;;5111868;28;20450;-69
2022/04/20 10:18:35;;;;;;;12.80;2.23;;;;;;;;;;5112085;28;20870;-69
2022/04/20 10:21:03;;;;;;;12.47;2.33;;;;;;;;;;5111783;28;20823;-68
2022/04/20 10:23:31;;;;;;;15.70;2.87;;;;;;;;;;5111728;28;20975;-67
2022/04/20 10:25:59;;;;;;;12.50;2.10;;;;;;;;;;5111778;28;20967;-67
2022/04/20 10:40:14;;;;;;;22.57;7.10;;;;;;;;;;5145765;27;20556;-67
2022/04/20 10:42:44;;;;;;;13.73;3.00;;;;;;;;;;5108539;28;20826;-67
2022/04/20 10:45:12;;;;;;;15.40;2.00;;;;;;;;;;5108296;28;21030;-72
2022/04/20 10:47:42;;;;;;;15.03;3.37;;;;;;;;;;5108031;28;20456;-69
2022/04/20 10:50:14;;;;;;;14.83;2.30;;;;;;;;;;5108247;28;20501;-68
2022/04/20 10:52:42;;;;;;;15.27;2.97;;;;;;;;;;5108150;28;20464;-69
2022/04/20 10:55:11;;;;;;;13.13;2.10;;;;;;;;;;5108235;28;20453;-68
2022/04/20 10:57:39;;;;;;;12.57;2.00;;;;;;;;;;5107786;28;20485;-67
2022/04/20 11:00:27;;;;;;;13.47;2.60;;;;;;;;;;5108295;28;20455;-69
2022/04/20 11:02:55;;;;;;;13.27;2.63;;;;;;;;;;5108017;28;20945;-68
2022/04/20 11:05:23;;;;;;;13.47;2.30;;;;;;;;;;5107824;28;20452;-70
2022/04/20 11:08:03;;;;;;;13.90;2.37;;;;;;;;;;5107949;28;20460;-68
2022/04/20 11:10:34;;;;;;;13.97;2.10;;;;;;;;;;5108023;28;20461;-71
2022/04/20 11:19:06;;;;;;;13.00;2.40;;;;;;;;;;5107781;28;21094;-67
2022/04/20 11:21:34;;;;;;;12.30;2.10;;;;;;;;;;5107637;28;20449;-69
2022/04/20 11:24:06;;;;;;;15.00;2.60;;;;;;;;;;5107651;28;20482;-73
2022/04/20 11:26:38;;;;;;;12.57;2.83;;;;;;;;;;5107681;28;20591;-72
2022/04/20 11:29:10;;;;;;;13.03;2.10;;;;;;;;;;5107690;28;20479;-69
2022/04/20 11:31:38;;;;;;;12.90;2.03;;;;;;;;;;5107246;28;20459;-72
2022/04/20 11:34:06;;;;;;;14.50;2.23;;;;;;;;;;5107575;28;20449;-72
2022/04/20 11:36:33;;;;;;;14.70;2.60;;;;;;;;;;5107488;28;20472;-71
2022/04/20 11:39:02;;;;;;;14.13;2.40;;;;;;;;;;5104161;28;20501;-72
2022/04/20 11:41:29;;;;;;;13.40;2.20;;;;;;;;;;5093408;28;20445;-72
2022/04/20 11:43:59;;;;;;;13.03;2.43;;;;;;;;;;5093662;28;20464;-71
2022/04/20 11:46:27;;;;;;;13.20;2.30;;;;;;;;;;5093497;28;20449;-69
2022/04/20 11:48:55;;;;;;;12.87;2.17;;;;;;;;;;5093685;28;20916;-70
2022/04/20 11:51:25;;;;;;;19.53;3.77;;;;;;;;;;5093243;28;20462;-70
2022/04/20 11:53:53;;;;;;;15.27;2.60;;;;;;;;;;5092588;28;20966;-72
2022/04/20 11:56:33;;;;;;;13.90;2.33;;;;;;;;;;5093340;28;20449;-70
2022/04/20 11:59:03;;;;;;;12.23;1.90;;;;;;;;;;5093532;28;20565;-70
2022/04/20 12:01:33;;;;;;;12.83;2.10;;;;;;;;;;5093162;28;20522;-72
2022/04/20 12:04:04;;;;;;;12.47;1.90;;;;;;;;;;5093433;28;20434;-71
2022/04/20 12:06:31;;;;;;;32.20;11.97;;;;;;;;;;5093115;28;21162;-71
2022/04/20 12:08:59;;;;;;;14.97;3.50;;;;;;;;;;5093202;28;21021;-71
2022/04/20 12:11:26;;;;;;;16.50;3.10;;;;;;;;;;5093056;28;20448;-71
2022/04/20 12:13:58;;;;;;;12.30;1.87;;;;;;;;;;5093264;28;20457;-72
2022/04/20 12:16:27;;;;;;;14.20;2.33;;;;;;;;;;5093183;28;20813;-73
2022/04/20 12:18:55;;;;;;;13.63;2.30;;;;;;;;;;5085947;28;20482;-73
2022/04/20 12:21:40;;;;;;;13.53;2.37;;;;;;;;;;5092768;28;20494;-72
2022/04/20 12:24:08;;;;;;;29.63;11.27;;;;;;;;;;5092914;28;20442;-72
2022/04/20 12:26:35;;;;;;;17.17;4.57;;;;;;;;;;5093289;28;20449;-69
2022/04/20 12:29:05;;;;;;;16.47;3.77;;;;;;;;;;5092740;28;20508;-68
2022/04/20 12:31:37;;;;;;;13.50;2.10;;;;;;;;;;5092447;28;20477;-69
2022/04/20 12:34:05;;;;;;;12.60;1.97;;;;;;;;;;5092880;28;20489;-70
2022/04/20 12:36:50;;;;;;;19.10;4.60;;;;;;;;;;5092639;28;20457;-70
2022/04/20 12:39:24;;;;;;;14.97;3.10;;;;;;;;;;5085613;28;20500;-71
2022/04/20 12:41:54;;;;;;;15.03;2.53;;;;;;;;;;5092476;28;20461;-70
2022/04/20 12:44:40;;;;;;;17.30;3.33;;;;;;;;;;5092966;28;20453;-69
2022/04/20 12:47:26;;;;;;;17.50;4.50;;;;;;;;;;5092523;28;20461;-67
2022/04/20 12:50:15;;;;;;;15.63;2.87;;;;;;;;;;5092345;28;20450;-68
2022/04/20 12:52:50;;;;;;;12.93;2.27;;;;;;;;;;5091687;28;20446;-69
2022/04/20 12:55:17;;;;;;;13.87;2.97;;;;;;;;;;5092318;28;20437;-69
2022/04/20 13:03:35;;;;;;;13.77;2.70;;;;;;;;;;5091819;28;20442;-67
2022/04/20 13:06:04;;;;;;;12.43;2.00;;;;;;;;;;5092216;28;20469;-65
2022/04/20 13:08:32;;;;;;;13.33;1.90;;;;;;;;;;5092082;28;20468;-66
2022/04/20 13:11:00;;;;;;;12.90;2.33;;;;;;;;;;5092029;28;20451;-68
2022/04/20 13:13:27;;;;;;;18.73;3.80;;;;;;;;;;5091901;28;20450;-66
2022/04/20 13:15:55;;;;;;;21.73;9.47;;;;;;;;;;5091893;28;20442;-65
2022/04/20 13:18:23;;;;;;;35.33;17.20;;;;;;;;;;5084944;28;20535;-67
2022/04/20 13:20:51;;;;;;;24.20;6.37;;;;;;;;;;5091870;28;20544;-67
2022/04/20 13:23:20;;;;;;;14.43;3.43;;;;;;;;;;5091640;28;20488;-68
2022/04/20 13:28:33;;;;;;;23.20;10.87;;;;;;;;;;5091466;28;20460;-70
2022/04/20 13:31:00;;;;;;;22.63;8.60;;;;;;;;;;5091528;28;20458;-68
2022/04/20 13:33:27;;;;;;;22.20;8.40;;;;;;;;;;5091339;28;20449;-67
2022/04/20 13:35:55;;;;;;;28.17;12.70;;;;;;;;;;5091127;28;20514;-69
2022/04/20 13:38:25;;;;;;;71.00;31.43;;;;;;;;;;5091340;28;20274;-69
2022/04/20 13:40:52;;;;;;;56.67;26.40;;;;;;;;;;5091578;28;20532;-69
2022/04/20 13:43:19;;;;;;;23.07;9.33;;;;;;;;;;5091777;28;20208;-71
2022/04/20 13:45:48;;;;;;;18.85;7.10;;;;;;;;;;5091351;28;20969;-67
2022/04/20 13:48:15;;;;;;;17.50;5.40;;;;;;;;;;5091468;28;20207;-72
2022/04/20 13:50:43;;;;;;;17.73;6.90;;;;;;;;;;5084456;28;20690;-71
2022/04/20 13:53:10;;;;;;;19.05;7.15;;;;;;;;;;5091208;28;20231;-68
2022/04/20 13:55:39;;;;;;;14.63;3.50;;;;;;;;;;5090906;28;20689;-73
2022/04/20 13:58:07;;;;;;;15.13;4.32;;;;;;;;;;5091201;28;20211;-70
2022/04/20 14:00:35;;;;;;;47.53;20.75;;;;;;;;;;5091252;28;20596;-68
2022/04/20 14:03:03;;;;;;;19.88;5.57;;;;;;;;;;5090713;28;20595;-68
2022/04/20 14:05:31;;;;;;;17.58;3.92;;;;;;;;;;5090751;28;20208;-70
2022/04/20 14:07:58;;;;;;;22.60;6.18;;;;;;;;;;5091231;28;20204;-70
2022/04/20 14:10:26;;;;;;;23.25;5.53;;;;;;;;;;5090954;28;20224;-68
2022/04/20 14:12:55;;;;;;;15.02;3.78;;;;;;;;;;5091176;28;20208;-70
2022/04/20 14:15:23;;;;;;;16.05;4.15;;;;;;;;;;5084177;28;20679;-69
2022/04/20 14:17:50;;;;;;;16.50;3.80;;;;;;;;;;5090837;28;20218;-67
2022/04/20 14:20:18;;;;;;;15.13;4.05;;;;;;;;;;5090719;28;20228;-68
2022/04/20 14:22:45;;;;;;;16.40;3.75;;;;;;;;;;5091010;28;20204;-67
2022/04/20 14:33:30;;;;;;;13.85;3.55;;;;;;;;;;5090660;28;20223;-67
2022/04/20 14:35:58;;;;;;;19.05;5.00;;;;;;;;;;5090862;28;20208;-67
2022/04/20 14:38:25;;;;;;;16.45;4.07;;;;;;;;;;5090447;28;20297;-67
2022/04/20 14:40:53;;;;;;;14.95;3.92;;;;;;;;;;5090983;28;20640;-68
2022/04/20 14:43:23;;;;;;;15.25;3.42;;;;;;;;;;5090868;28;20215;-67
2022/04/20 14:45:50;;;;;;;14.65;3.88;;;;;;;;;;5090721;28;20400;-67
2022/04/20 14:48:18;;;;;;;17.55;3.55;;;;;;;;;;5090710;28;20217;-68
2022/04/20 14:50:47;;;;;;;15.13;3.15;;;;;;;;;;5090504;28;20207;-69
2022/04/20 14:53:15;;;;;;;16.70;4.35;;;;;;;;;;5090527;28;20214;-69
2022/04/20 14:55:42;;;;;;;15.80;4.72;;;;;;;;;;5090489;28;20215;-67
2022/04/20 14:58:09;;;;;;;16.27;4.00;;;;;;;;;;5090543;28;20707;-68
2022/04/20 15:00:41;;;;;;;15.27;3.80;;;;;;;;;;5090527;28;20612;-67
2022/04/20 15:03:09;;;;;;;19.08;5.03;;;;;;;;;;5090523;28;20300;-67
2022/04/20 15:05:36;;;;;;;19.65;6.80;;;;;;;;;;5090151;28;20691;-68
2022/04/20 15:08:05;;;;;;;37.17;18.20;;;;;;;;;;5090499;28;20204;-67
2022/04/20 15:10:34;;;;;;;49.78;25.30;;;;;;;;;;5090520;28;20207;-67
2022/04/20 15:13:01;;;;;;;43.10;16.60;;;;;;;;;;5090437;28;20288;-68
2022/04/20 15:15:29;;;;;;;18.30;6.07;;;;;;;;;;5092457;28;20695;-66
2022/04/20 15:18:00;;;;;;;15.10;3.85;;;;;;;;;;5094186;28;20215;-66
2022/04/20 15:20:27;;;;;;;20.02;6.45;;;;;;;;;;5094373;28;20293;-66
2022/04/20 15:22:55;;;;;;;18.52;4.72;;;;;;;;;;5094111;28;20208;-67
2022/04/20 15:25:23;;;;;;;19.13;4.70;;;;;;;;;;5093039;28;20215;-71
2022/04/20 15:27:50;;;;;;;14.63;3.75;;;;;;;;;;5094054;28;20272;-75
2022/04/20 15:30:19;;;;;;;13.80;2.95;;;;;;;;;;5093513;28;20204;-75
2022/04/20 15:32:46;;;;;;;25.10;8.30;;;;;;;;;;5093752;28;20661;-80
2022/04/20 15:35:15;;;;;;;19.92;4.57;;;;;;;;;;5087004;28;20683;-75
2022/04/20 15:37:43;;;;;;;17.33;4.60;;;;;;;;;;5093556;28;20204;-76
2022/04/20 15:40:11;;;;;;;28.15;6.88;;;;;;;;;;5093716;28;20242;-74
2022/04/20 15:42:38;;;;;;;19.90;5.18;;;;;;;;;;5093722;28;20207;-75
2022/04/20 15:45:06;;;;;;;15.43;3.60;;;;;;;;;;5093647;28;20292;-75
2022/04/20 15:47:34;;;;;;;15.65;3.85;;;;;;;;;;5093305;28;20223;-76
2022/04/20 15:50:01;;;;;;;14.63;3.72;;;;;;;;;;5094043;28;20631;-75
2022/04/20 15:52:31;;;;;;;16.65;5.35;;;;;;;;;;5092703;28;20691;-74
2022/04/20 16:00:31;;;;;;;14.18;3.92;;;;;;;;;;5093517;28;20239;-74
2022/04/20 16:02:59;;;;;;;13.90;3.65;;;;;;;;;;5093551;28;20298;-74
2022/04/20 16:05:27;;;;;;;15.38;3.78;;;;;;;;;;5093258;28;20208;-76
2022/04/20 16:07:57;;;;;;;15.00;3.80;;;;;;;;;;5093299;28;20216;-77
2022/04/20 16:10:24;;;;;;;15.40;3.70;;;;;;;;;;5091856;28;20215;-74
2022/04/20 16:12:52;;;;;;;15.43;4.07;;;;;;;;;;5091243;28;20601;-74
2022/04/20 16:15:20;;;;;;;15.18;4.43;;;;;;;;;;5091169;28;20215;-74
2022/04/20 16:17:48;;;;;;;14.30;3.95;;;;;;;;;;5091161;28;20269;-77
2022/04/20 16:20:16;;;;;;;16.60;4.85;;;;;;;;;;5091367;28;20599;-73
2022/04/20 16:22:45;;;;;;;17.33;5.13;;;;;;;;;;5090819;28;20211;-73
2022/04/20 16:25:15;;;;;;;16.15;4.90;;;;;;;;;;5091845;28;20690;-74
2022/04/20 16:27:42;;;;;;;21.13;5.88;;;;;;;;;;5092757;28;20220;-73
2022/04/20 16:30:10;;;;;;;20.02;6.55;;;;;;;;;;5092907;28;20207;-74
2022/04/20 16:32:37;;;;;;;18.15;5.60;;;;;;;;;;5092914;28;20204;-75
2022/04/20 16:35:05;;;;;;;20.52;7.20;;;;;;;;;;5092561;28;20231;-74
2022/04/20 16:37:32;;;;;;;18.00;6.45;;;;;;;;;;5092247;28;20702;-73
2022/04/20 16:40:00;;;;;;;20.95;7.10;;;;;;;;;;5092827;28;20227;-73
2022/04/20 16:42:29;;;;;;;17.95;6.35;;;;;;;;;;5085874;28;20207;-75
2022/04/20 16:44:57;;;;;;;19.15;5.68;;;;;;;;;;5092482;28;20212;-76
2022/04/20 16:47:24;;;;;;;17.55;6.18;;;;;;;;;;5092202;28;20206;-74
2022/04/20 16:49:52;;;;;;;18.42;5.60;;;;;;;;;;5092493;28;20294;-73
2022/04/20 16:52:21;;;;;;;17.98;5.90;;;;;;;;;;5092645;28;20211;-75
2022/04/20 16:54:50;;;;;;;18.70;6.40;;;;;;;;;;5092285;28;20236;-75
2022/04/20 16:57:17;;;;;;;18.23;5.95;;;;;;;;;;5092342;28;20261;-76
2022/04/20 16:59:46;;;;;;;18.90;6.05;;;;;;;;;;5092026;28;20235;-75
2022/04/20 17:02:14;;;;;;;16.95;6.15;;;;;;;;;;5092189;28;20593;-77
2022/04/20 17:04:42;;;;;;;19.70;6.28;;;;;;;;;;5092456;28;20208;-74
2022/04/20 17:07:09;;;;;;;20.58;6.20;;;;;;;;;;5092365;28;20273;-76
2022/04/20 17:09:37;;;;;;;21.13;5.97;;;;;;;;;;5091909;28;20222;-76
2022/04/20 17:12:04;;;;;;;19.48;6.50;;;;;;;;;;5091976;28;20200;-77
2022/04/20 17:14:32;;;;;;;22.30;7.20;;;;;;;;;;5092048;28;20208;-75
2022/04/20 17:17:01;;;;;;;19.17;6.85;;;;;;;;;;5091938;28;20212;-76
2022/04/20 17:19:34;;;;;;;18.83;6.80;;;;;;;;;;5091584;28;21107;-75